createdAt,value
2018-12-17T00:01:52.382Z,18.73
2018-12-17T00:04:23.844Z,11.83
2018-12-17T00:06:55.547Z,12.90
2018-12-17T00:09:27.064Z,13.83
2018-12-17T00:11:58.668Z,11.73
2018-12-17T00:14:30.267Z,12.43
2018-12-17T00:17:02.049Z,11.97
2018-12-17T00:19:33.470Z,11.67
2018-12-17T00:22:05.269Z,11.90
2018-12-17T00:24:36.872Z,11.50
2018-12-17T00:27:08.424Z,14.47
2018-12-17T00:29:39.950Z,13.03
2018-12-17T00:32:11.546Z,15.87
2018-12-17T00:34:43.094Z,12.27
2018-12-17T00:37:14.640Z,13.60
2018-12-17T00:39:46.064Z,11.20
2018-12-17T00:42:17.640Z,11.57
2018-12-17T00:44:49.278Z,11.20
2018-12-17T00:47:20.780Z,11.00
2018-12-17T00:49:52.172Z,15.13
2018-12-17T00:52:23.759Z,11.57
2018-12-17T00:54:55.314Z,10.13
2018-12-17T00:57:26.885Z,12.83
2018-12-17T00:59:58.319Z,12.50
2018-12-17T01:02:29.872Z,10.80
2018-12-17T01:05:01.385Z,12.00
2018-12-17T01:07:32.993Z,12.80
2018-12-17T01:10:05.297Z,12.53
2018-12-17T01:12:36.708Z,11.33
2018-12-17T01:15:09.716Z,14.40
2018-12-17T01:17:41.271Z,13.37
2018-12-17T01:20:12.968Z,14.17
2018-12-17T01:22:44.467Z,14.23
2018-12-17T01:25:16.028Z,12.13
2018-12-17T01:27:47.472Z,11.83
2018-12-17T01:30:19.028Z,14.93
2018-12-17T01:32:50.504Z,12.37
2018-12-17T01:35:22.080Z,16.60
2018-12-17T01:37:53.684Z,16.20
2018-12-17T01:40:25.292Z,14.77
2018-12-17T01:42:56.800Z,17.97
2018-12-17T01:45:28.198Z,16.77
2018-12-17T01:47:59.725Z,17.97
2018-12-17T01:50:31.241Z,19.77
2018-12-17T01:53:02.905Z,18.90
2018-12-17T01:55:34.520Z,18.23
2018-12-17T01:58:06.025Z,20.30
2018-12-17T02:00:37.621Z,14.87
2018-12-17T02:03:09.236Z,14.57
2018-12-17T02:05:41.093Z,14.03
2018-12-17T02:08:12.761Z,13.47
2018-12-17T02:10:44.300Z,14.47
2018-12-17T02:13:15.903Z,14.40
2018-12-17T02:15:47.408Z,13.57
2018-12-17T02:18:18.950Z,12.37
2018-12-17T02:20:50.415Z,14.70
2018-12-17T02:23:21.958Z,13.60
2018-12-17T02:25:53.428Z,12.60
2018-12-17T02:28:25.027Z,13.03
2018-12-17T02:30:56.540Z,11.90
2018-12-17T02:33:28.075Z,13.07
2018-12-17T02:35:59.536Z,11.70
2018-12-17T02:38:31.136Z,11.13
2018-12-17T02:41:02.674Z,11.67
2018-12-17T02:43:34.216Z,9.60
2018-12-17T02:46:05.730Z,8.50
2018-12-17T02:48:37.359Z,13.03
2018-12-17T02:51:08.861Z,9.97
2018-12-17T02:53:40.461Z,10.50
2018-12-17T02:56:11.970Z,12.20
2018-12-17T02:58:44.092Z,11.63
2018-12-17T03:01:15.862Z,11.17
2018-12-17T03:03:47.343Z,13.60
2018-12-17T03:06:18.935Z,12.47
2018-12-17T03:08:50.458Z,11.73
2018-12-17T03:11:22.157Z,17.97
2018-12-17T03:13:53.669Z,12.77
2018-12-17T03:16:25.366Z,13.67
2018-12-17T03:18:56.877Z,16.70
2018-12-17T03:21:28.482Z,18.17
2018-12-17T03:24:00.234Z,12.13
2018-12-17T03:26:31.820Z,12.37
2018-12-17T03:29:03.325Z,10.47
2018-12-17T03:31:35.361Z,14.10
2018-12-17T03:34:06.974Z,11.70
2018-12-17T03:36:38.561Z,15.43
2018-12-17T03:39:10.177Z,12.67
2018-12-17T03:41:41.878Z,12.07
2018-12-17T03:44:13.414Z,9.00
2018-12-17T03:46:44.841Z,11.73
2018-12-17T03:49:16.437Z,9.40
2018-12-17T03:51:47.843Z,8.13
2018-12-17T03:54:20.035Z,11.97
2018-12-17T03:56:51.637Z,11.60
2018-12-17T03:59:23.065Z,11.53
2018-12-17T04:01:54.670Z,11.57
2018-12-17T04:04:26.179Z,13.00
2018-12-17T04:06:57.817Z,14.63
2018-12-17T04:09:29.278Z,12.87
2018-12-17T04:12:00.692Z,11.07
2018-12-17T04:14:32.186Z,11.77
2018-12-17T04:17:03.754Z,12.30
2018-12-17T04:19:35.184Z,12.33
2018-12-17T04:22:06.837Z,11.43
2018-12-17T04:24:38.257Z,13.60
2018-12-17T04:27:09.842Z,14.43
2018-12-17T04:29:41.656Z,10.90
2018-12-17T04:32:13.279Z,11.93
2018-12-17T04:34:44.808Z,13.37
2018-12-17T04:37:16.375Z,11.83
2018-12-17T04:39:47.935Z,13.57
2018-12-17T04:42:19.372Z,12.27
2018-12-17T04:44:50.920Z,13.23
2018-12-17T04:47:22.387Z,10.50
2018-12-17T04:49:54.125Z,10.73
2018-12-17T04:52:25.596Z,11.13
2018-12-17T04:54:57.230Z,10.83
2018-12-17T04:57:28.787Z,8.50
2018-12-17T05:00:00.344Z,13.83
2018-12-17T05:02:31.759Z,11.30
2018-12-17T05:05:03.473Z,12.57
2018-12-17T05:07:35.315Z,12.57
2018-12-17T05:10:07.616Z,12.43
2018-12-17T05:12:39.047Z,12.00
2018-12-17T05:15:10.655Z,11.13
2018-12-17T05:17:42.160Z,11.47
2018-12-17T05:20:13.791Z,10.70
2018-12-17T05:22:45.224Z,11.83
2018-12-17T05:25:16.822Z,11.20
2018-12-17T05:27:48.358Z,12.53
2018-12-17T05:30:20.190Z,15.10
2018-12-17T05:32:51.789Z,12.30
2018-12-17T05:35:23.424Z,10.90
2018-12-17T05:37:54.993Z,11.97
2018-12-17T05:40:26.397Z,15.47
2018-12-17T05:42:57.993Z,11.47
2018-12-17T05:45:29.615Z,12.17
2018-12-17T05:48:01.204Z,12.50
2018-12-17T05:50:32.747Z,13.60
2018-12-17T05:53:04.222Z,13.37
2018-12-17T05:55:35.861Z,16.20
2018-12-17T05:58:07.316Z,11.80
2018-12-17T06:00:38.858Z,9.97
2018-12-17T06:03:10.331Z,12.90
2018-12-17T06:05:41.929Z,10.00
2018-12-17T06:08:13.748Z,9.70
2018-12-17T06:10:45.384Z,9.77
2018-12-17T06:13:16.801Z,10.60
2018-12-17T06:15:48.383Z,12.17
2018-12-17T06:18:19.799Z,14.17
2018-12-17T06:20:51.660Z,11.30
2018-12-17T06:23:23.360Z,11.73
2018-12-17T06:25:54.784Z,13.40
2018-12-17T06:28:26.368Z,13.00
2018-12-17T06:30:57.781Z,13.70
2018-12-17T06:33:29.373Z,14.83
2018-12-17T06:36:00.789Z,14.00
2018-12-17T06:38:32.432Z,12.77
2018-12-17T06:41:03.901Z,11.93
2018-12-17T06:43:35.482Z,10.93
2018-12-17T06:46:07.135Z,24.03
2018-12-17T06:48:38.698Z,27.30
2018-12-17T06:51:10.117Z,20.60
2018-12-17T06:53:41.704Z,19.80
2018-12-17T06:56:13.117Z,19.60
2018-12-17T06:58:44.709Z,18.07
2018-12-17T07:01:16.244Z,13.27
2018-12-17T07:03:47.803Z,12.70
2018-12-17T07:06:19.415Z,11.13
2018-12-17T07:08:50.933Z,12.80
2018-12-17T07:11:22.652Z,14.67
2018-12-17T07:13:54.147Z,13.13
2018-12-17T07:16:25.752Z,18.13
2018-12-17T07:18:57.356Z,21.87
2018-12-17T07:21:28.894Z,15.93
2018-12-17T07:24:00.355Z,15.70
2018-12-17T07:26:31.909Z,15.93
2018-12-17T07:29:03.389Z,16.10
2018-12-17T07:31:34.915Z,18.00
2018-12-17T07:34:06.412Z,20.70
2018-12-17T07:36:38.020Z,18.03
2018-12-17T07:39:09.969Z,17.23
2018-12-17T07:41:41.448Z,17.67
2018-12-17T07:44:12.858Z,10.53
2018-12-17T07:46:44.427Z,17.57
2018-12-17T07:49:15.989Z,17.80
2018-12-17T07:51:47.545Z,17.70
2018-12-17T07:54:18.966Z,17.87
2018-12-17T07:56:50.543Z,19.53
2018-12-17T07:59:21.976Z,19.47
2018-12-17T08:01:53.700Z,19.30
2018-12-17T08:04:25.519Z,17.30
2018-12-17T08:06:57.076Z,19.33
2018-12-17T08:09:28.689Z,19.17
2018-12-17T08:12:00.295Z,17.90
2018-12-17T08:14:31.837Z,17.23
2018-12-17T08:17:04.128Z,19.10
2018-12-17T08:19:35.653Z,18.37
2018-12-17T08:22:07.213Z,18.10
2018-12-17T08:24:38.618Z,12.53
2018-12-17T08:27:10.220Z,17.03
2018-12-17T08:29:41.828Z,15.87
2018-12-17T08:32:13.236Z,17.80
2018-12-17T08:34:44.652Z,18.27
2018-12-17T08:37:16.220Z,17.50
2018-12-17T08:39:47.655Z,17.30
2018-12-17T08:42:19.234Z,16.83
2018-12-17T08:44:52.177Z,17.23
2018-12-17T08:47:23.696Z,17.00
2018-12-17T08:49:55.105Z,17.20
2018-12-17T08:52:26.681Z,16.53
2018-12-17T08:54:58.364Z,15.47
2018-12-17T08:57:29.891Z,16.13
2018-12-17T09:00:01.357Z,17.70
2018-12-17T09:02:33.015Z,19.27
2018-12-17T09:05:04.941Z,18.70
2018-12-17T09:07:36.718Z,19.37
2018-12-17T09:10:09.444Z,18.20
2018-12-17T09:12:40.869Z,16.97
2018-12-17T09:15:12.398Z,17.17
2018-12-17T09:17:43.876Z,17.30
2018-12-17T09:20:15.406Z,18.20
2018-12-17T09:22:46.896Z,17.13
2018-12-17T09:25:18.481Z,11.60
2018-12-17T09:27:49.977Z,17.60
2018-12-17T09:30:21.542Z,17.03
2018-12-17T09:32:52.967Z,18.10
2018-12-17T09:35:24.537Z,17.70
2018-12-17T09:37:55.949Z,14.33
2018-12-17T09:40:27.535Z,14.53
2018-12-17T09:42:59.206Z,9.00
2018-12-17T09:45:30.774Z,12.83
2018-12-17T09:48:02.357Z,15.93
2018-12-17T09:50:33.958Z,13.87
2018-12-17T09:53:05.504Z,14.57
2018-12-17T09:55:37.064Z,15.20
2018-12-17T09:58:08.533Z,15.83
2018-12-17T10:00:40.124Z,14.63
2018-12-17T10:03:11.781Z,15.43
2018-12-17T10:05:43.292Z,15.17
2018-12-17T10:08:14.836Z,17.07
2018-12-17T10:10:46.257Z,17.23
2018-12-17T10:13:17.845Z,15.03
2018-12-17T10:15:49.296Z,15.17
2018-12-17T10:18:20.948Z,15.30
2018-12-17T10:20:52.414Z,13.23
2018-12-17T10:23:23.961Z,15.77
2018-12-17T10:25:55.497Z,16.40
2018-12-17T10:28:27.062Z,16.80
2018-12-17T10:30:58.492Z,16.63
2018-12-17T10:33:30.077Z,17.17
2018-12-17T10:36:01.713Z,16.93
2018-12-17T10:38:33.188Z,16.30
2018-12-17T10:41:04.733Z,18.63
2018-12-17T10:43:36.225Z,17.83
2018-12-17T10:46:07.929Z,17.30
2018-12-17T10:48:39.482Z,16.60
2018-12-17T10:51:11.064Z,17.77
2018-12-17T10:53:42.460Z,16.37
2018-12-17T10:56:14.044Z,17.37
2018-12-17T10:58:45.452Z,18.57
2018-12-17T11:01:22.066Z,18.07
2018-12-17T11:03:58.636Z,17.07
2018-12-17T11:06:30.292Z,14.97
2018-12-17T11:09:02.357Z,14.47
2018-12-17T11:11:34.124Z,13.10
2018-12-17T11:14:05.548Z,17.20
2018-12-17T11:16:37.045Z,16.27
2018-12-17T11:19:08.436Z,19.07
2018-12-17T11:21:40.269Z,17.63
2018-12-17T11:24:11.847Z,16.53
2018-12-17T11:26:43.259Z,13.83
2018-12-17T11:29:14.863Z,16.13
2018-12-17T11:31:46.372Z,15.50
2018-12-17T11:34:17.986Z,14.60
2018-12-17T11:36:49.477Z,14.40
2018-12-17T11:39:21.070Z,15.63
2018-12-17T11:41:52.591Z,12.47
2018-12-17T11:44:24.233Z,13.77
2018-12-17T11:46:55.780Z,9.67
2018-12-17T11:49:27.400Z,8.50
2018-12-17T11:51:58.900Z,10.50
2018-12-17T11:54:30.440Z,9.40
2018-12-17T11:57:55.080Z,8.17
2018-12-17T12:00:28.219Z,6.77
2018-12-17T12:02:59.756Z,12.97
2018-12-17T12:05:31.269Z,11.70
2018-12-17T12:08:02.909Z,12.70
2018-12-17T12:10:34.362Z,10.03
2018-12-17T12:13:05.893Z,12.83
2018-12-17T12:15:37.368Z,12.70
2018-12-17T12:18:08.898Z,10.80
2018-12-17T12:20:40.362Z,9.20
2018-12-17T12:23:11.959Z,9.60
2018-12-17T12:25:43.472Z,8.20
2018-12-17T12:28:15.014Z,12.03
2018-12-17T12:30:46.474Z,11.73
2018-12-17T12:33:18.077Z,13.47
2018-12-17T12:35:49.586Z,10.30
2018-12-17T12:38:21.116Z,7.30
2018-12-17T12:40:52.529Z,4.83
2018-12-17T12:43:24.122Z,7.13
2018-12-17T12:45:55.679Z,7.97
2018-12-17T12:48:27.246Z,7.47
2018-12-17T12:50:58.844Z,6.97
2018-12-17T12:53:30.360Z,8.00
2018-12-17T12:56:01.960Z,8.60
2018-12-17T12:58:33.461Z,7.30
2018-12-17T13:01:07.719Z,11.17
2018-12-17T13:03:38.482Z,12.10
2018-12-17T13:06:10.050Z,8.00
2018-12-17T13:08:48.078Z,8.27
2018-12-17T13:11:19.518Z,7.83
2018-12-17T13:13:51.127Z,8.43
2018-12-17T13:16:22.639Z,8.27
2018-12-17T13:18:54.274Z,8.17
2018-12-17T13:21:25.694Z,7.93
2018-12-17T13:23:57.286Z,8.43
2018-12-17T13:26:28.837Z,8.77
2018-12-17T13:29:00.287Z,8.77
2018-12-17T13:31:31.711Z,10.27
2018-12-17T13:34:03.293Z,9.07
2018-12-17T13:36:34.908Z,9.20
2018-12-17T13:39:08.296Z,6.97
2018-12-17T13:41:39.797Z,5.10
2018-12-17T13:44:11.211Z,6.17
2018-12-17T13:46:42.799Z,7.63
2018-12-17T13:49:14.355Z,8.03
2018-12-17T13:51:50.858Z,6.60
2018-12-17T13:54:22.374Z,5.53
2018-12-17T13:56:53.838Z,5.03
2018-12-17T13:59:25.383Z,6.10
2018-12-17T14:01:58.191Z,7.93
2018-12-17T14:04:29.885Z,5.80
2018-12-17T14:07:01.387Z,5.87
2018-12-17T14:09:35.052Z,7.90
2018-12-17T14:12:06.696Z,7.53
2018-12-17T14:14:38.059Z,5.70
2018-12-17T14:17:14.519Z,8.13
2018-12-17T14:19:49.994Z,6.10
2018-12-17T14:22:21.621Z,7.47
2018-12-17T14:24:53.148Z,6.77
2018-12-17T14:27:24.650Z,6.27
2018-12-17T14:29:56.125Z,4.33
2018-12-17T14:32:27.771Z,4.30
2018-12-17T14:34:59.239Z,7.37
2018-12-17T14:37:30.771Z,7.40
2018-12-17T14:40:02.244Z,6.30
2018-12-17T14:42:33.798Z,6.77
2018-12-17T14:45:06.747Z,6.93
2018-12-17T14:47:38.326Z,4.87
2018-12-17T14:50:09.820Z,5.53
2018-12-17T14:52:41.377Z,7.33
2018-12-17T15:13:59.829Z,6.80
2018-12-17T15:16:31.280Z,6.23
2018-12-17T15:19:02.774Z,5.23
2018-12-17T15:21:34.274Z,5.77
2018-12-17T15:24:05.818Z,6.40
2018-12-17T15:26:37.693Z,5.57
2018-12-17T15:29:09.188Z,5.87
2018-12-17T15:31:43.243Z,6.60
2018-12-17T15:34:14.062Z,9.57
2018-12-17T15:36:45.701Z,10.07
2018-12-17T15:39:17.207Z,10.03
2018-12-17T15:41:48.848Z,9.13
2018-12-17T15:44:20.225Z,14.40
2018-12-17T15:46:51.747Z,8.73
2018-12-17T15:49:23.159Z,8.67
2018-12-17T15:51:54.751Z,8.43
2018-12-17T15:54:26.122Z,8.17
2018-12-17T15:56:57.653Z,8.30
2018-12-17T15:59:29.295Z,8.17
2018-12-17T16:02:00.894Z,7.20
2018-12-17T16:04:32.376Z,7.83
2018-12-17T16:07:04.003Z,6.23
2018-12-17T16:09:35.481Z,7.50
2018-12-17T16:12:07.080Z,7.23
2018-12-17T16:14:38.451Z,6.87
2018-12-17T16:17:10.512Z,7.17
2018-12-17T16:19:42.161Z,6.20
2018-12-17T16:22:13.574Z,8.10
2018-12-17T16:24:45.245Z,7.50
2018-12-17T16:27:19.497Z,6.07
2018-12-17T16:29:50.491Z,8.30
2018-12-17T16:32:22.192Z,7.77
2018-12-17T16:34:53.800Z,7.07
2018-12-17T16:37:25.291Z,6.77
2018-12-17T16:39:56.846Z,7.67
2018-12-17T16:42:28.304Z,6.83
2018-12-17T16:44:59.845Z,8.30
2018-12-17T16:47:31.310Z,8.23
2018-12-17T16:50:02.925Z,8.40
2018-12-17T16:52:34.407Z,7.37
2018-12-17T16:55:06.333Z,11.33
2018-12-17T16:57:37.915Z,8.40
2018-12-17T17:00:11.882Z,7.13
2018-12-17T17:02:43.387Z,10.10
2018-12-17T17:05:14.891Z,8.03
2018-12-17T17:07:46.484Z,10.10
2018-12-17T17:10:17.934Z,8.50
2018-12-17T17:12:49.495Z,8.50
2018-12-17T17:15:21.080Z,9.83
2018-12-17T17:17:52.613Z,10.10
2018-12-17T17:20:24.013Z,8.63
2018-12-17T17:22:55.605Z,10.50
2018-12-17T17:25:27.232Z,10.70
2018-12-17T17:27:58.726Z,10.77
2018-12-17T17:30:30.345Z,10.67
2018-12-17T17:33:01.849Z,11.27
2018-12-17T17:35:33.190Z,8.40
2018-12-17T17:38:04.719Z,8.10
2018-12-17T17:40:36.451Z,8.27
2018-12-17T17:43:08.045Z,10.60
2018-12-17T17:45:39.472Z,11.10
2018-12-17T17:48:11.036Z,11.13
2018-12-17T17:50:42.459Z,11.47
2018-12-17T17:53:13.953Z,10.03
2018-12-17T17:55:45.561Z,11.67
2018-12-17T17:58:17.085Z,10.60
2018-12-17T18:00:48.517Z,12.73
2018-12-17T18:03:20.068Z,10.83
2018-12-17T18:05:51.634Z,9.70
2018-12-17T18:08:23.287Z,9.43
2018-12-17T18:10:55.090Z,9.77
2018-12-17T18:13:26.595Z,8.87
2018-12-17T18:15:58.194Z,9.93
2018-12-17T18:18:29.708Z,9.07
2018-12-17T18:21:01.313Z,10.00
2018-12-17T18:23:32.808Z,8.87
2018-12-17T18:26:04.369Z,8.07
2018-12-17T18:28:35.824Z,8.37
2018-12-17T18:31:07.346Z,7.20
2018-12-17T18:33:39.845Z,10.77
2018-12-17T18:36:11.339Z,9.60
2018-12-17T18:38:42.829Z,8.13
2018-12-17T18:41:14.267Z,9.23
2018-12-17T18:43:45.855Z,9.47
2018-12-17T18:46:17.395Z,8.83
2018-12-17T18:48:49.058Z,7.17
2018-12-17T18:51:20.472Z,6.37
2018-12-17T18:53:52.063Z,17.97
2018-12-17T18:56:23.680Z,10.30
2018-12-17T18:58:55.193Z,10.57
2018-12-17T19:01:26.779Z,7.67
2018-12-17T19:03:58.283Z,9.33
2018-12-17T19:06:29.901Z,10.23
2018-12-17T19:09:01.376Z,7.73
2018-12-17T19:11:32.994Z,9.70
2018-12-17T19:14:04.518Z,9.57
2018-12-17T19:16:36.109Z,10.10
2018-12-17T19:19:07.607Z,8.87
2018-12-17T19:21:39.258Z,8.17
2018-12-17T19:24:10.718Z,9.17
2018-12-17T19:26:42.327Z,10.97
2018-12-17T19:29:13.792Z,9.90
2018-12-17T19:31:45.377Z,10.77
2018-12-17T19:34:16.837Z,10.33
2018-12-17T19:36:48.442Z,10.13
2018-12-17T19:39:20.009Z,10.30
2018-12-17T19:41:51.584Z,9.17
2018-12-17T19:44:23.019Z,10.50
2018-12-17T19:46:54.585Z,10.10
2018-12-17T19:49:26.143Z,7.27
2018-12-17T19:51:57.712Z,11.60
2018-12-17T19:54:29.120Z,10.70
2018-12-17T19:57:00.706Z,11.57
2018-12-17T19:59:32.125Z,12.67
2018-12-17T20:02:03.712Z,14.80
2018-12-17T20:04:35.136Z,11.73
2018-12-17T20:07:06.684Z,16.97
2018-12-17T20:09:38.132Z,11.90
2018-12-17T20:12:09.732Z,13.33
2018-12-17T20:14:41.184Z,12.67
2018-12-17T20:17:12.731Z,13.57
2018-12-17T20:19:44.185Z,11.43
2018-12-17T20:22:15.612Z,11.93
2018-12-17T20:24:47.184Z,11.50
2018-12-17T20:27:18.732Z,12.00
2018-12-17T20:29:50.643Z,11.10
2018-12-17T20:32:22.311Z,9.23
2018-12-17T20:34:53.821Z,12.77
2018-12-17T20:37:25.421Z,11.67
2018-12-17T20:39:56.980Z,9.10
2018-12-17T20:42:29.282Z,9.57
2018-12-17T20:45:00.845Z,10.50
2018-12-17T20:47:32.199Z,12.97
2018-12-17T20:50:03.779Z,11.00
2018-12-17T20:52:35.216Z,12.50
2018-12-17T20:55:07.205Z,11.00
2018-12-17T20:57:38.582Z,10.00
2018-12-17T21:00:10.315Z,8.93
2018-12-17T21:02:41.816Z,9.87
2018-12-17T21:05:13.401Z,10.13
2018-12-17T21:07:44.782Z,8.10
2018-12-17T21:10:16.499Z,9.07
2018-12-17T21:12:48.417Z,8.73
2018-12-17T21:15:19.931Z,8.97
2018-12-17T21:17:51.451Z,9.60
2018-12-17T21:20:22.888Z,10.37
2018-12-17T21:22:54.456Z,6.83
2018-12-17T21:25:25.944Z,11.17
2018-12-17T21:27:57.463Z,8.60
2018-12-17T21:30:28.930Z,10.23
2018-12-17T21:33:06.581Z,9.47
2018-12-17T21:35:34.063Z,9.87
2018-12-17T21:38:05.631Z,10.00
2018-12-17T21:40:37.245Z,10.60
2018-12-17T21:43:08.836Z,12.77
2018-12-17T21:45:40.438Z,9.47
2018-12-17T21:48:11.950Z,9.07
2018-12-17T21:50:43.555Z,8.97
2018-12-17T21:53:15.061Z,11.40
2018-12-17T21:55:46.603Z,8.83
2018-12-17T21:58:18.056Z,8.83
2018-12-17T22:00:49.678Z,11.50
2018-12-17T22:03:21.176Z,9.20
2018-12-17T22:05:52.705Z,10.77
2018-12-17T22:08:24.132Z,10.40
2018-12-17T22:10:55.773Z,8.17
2018-12-17T22:13:27.279Z,9.60
2018-12-17T22:15:58.878Z,7.40
2018-12-17T22:18:30.367Z,9.57
2018-12-17T22:21:01.986Z,8.83
2018-12-17T22:23:33.399Z,11.37
2018-12-17T22:26:05.000Z,7.70
2018-12-17T22:28:36.499Z,10.33
2018-12-17T22:31:08.111Z,8.20
2018-12-17T22:33:39.612Z,7.70
2018-12-17T22:36:11.153Z,10.33
2018-12-17T22:38:42.606Z,8.60
2018-12-17T22:41:14.163Z,8.90
2018-12-17T22:43:45.623Z,9.07
2018-12-17T22:46:17.230Z,8.63
2018-12-17T22:48:48.747Z,8.70
2018-12-17T22:51:20.266Z,9.47
2018-12-17T22:53:51.740Z,7.57
2018-12-17T22:56:23.277Z,10.20
2018-12-17T22:58:54.755Z,8.93
2018-12-17T23:01:26.318Z,7.97
2018-12-17T23:03:57.804Z,7.77
2018-12-17T23:06:29.386Z,9.27
2018-12-17T23:09:05.240Z,7.80
2018-12-17T23:11:57.991Z,9.73
2018-12-17T23:14:45.782Z,9.53
2018-12-17T23:17:33.412Z,9.87
2018-12-17T23:20:05.072Z,8.30
2018-12-17T23:22:37.631Z,12.57
2018-12-17T23:25:09.174Z,9.80
2018-12-17T23:27:47.148Z,9.47
2018-12-17T23:30:18.719Z,9.23
2018-12-17T23:32:50.255Z,7.57
2018-12-17T23:35:21.963Z,8.93
2018-12-17T23:37:53.336Z,8.90
2018-12-17T23:40:24.922Z,8.20
2018-12-17T23:42:56.340Z,10.00
2018-12-17T23:45:28.056Z,7.97
2018-12-17T23:47:59.640Z,10.37
2018-12-17T23:50:31.129Z,11.90
2018-12-17T23:53:02.562Z,9.63
2018-12-17T23:55:34.160Z,10.13
2018-12-17T23:58:05.756Z,9.27
